createdAt,value
2024-03-18T00:00:48.973Z,24.37
2024-03-18T00:01:49.065Z,24.37
2024-03-18T00:02:49.101Z,24.37
2024-03-18T00:03:49.125Z,24.37
2024-03-18T00:04:49.226Z,24.36
2024-03-18T00:05:49.246Z,24.36
2024-03-18T00:06:49.284Z,24.37
2024-03-18T00:07:49.372Z,24.37
2024-03-18T00:08:49.405Z,24.37
2024-03-18T00:09:49.476Z,24.37
2024-03-18T00:10:49.567Z,24.36
2024-03-18T00:11:49.589Z,24.37
2024-03-18T00:12:49.631Z,24.36
2024-03-18T00:13:49.702Z,24.37
2024-03-18T00:14:49.746Z,24.37
2024-03-18T00:15:49.803Z,24.37
2024-03-18T00:16:49.904Z,24.37
2024-03-18T00:17:49.938Z,24.37
2024-03-18T00:18:49.960Z,24.37
2024-03-18T00:19:50.030Z,24.36
2024-03-18T00:20:50.090Z,24.37
2024-03-18T00:21:50.147Z,24.37
2024-03-18T00:22:50.204Z,24.36
2024-03-18T00:23:50.239Z,24.36
2024-03-18T00:24:50.340Z,24.37
2024-03-18T00:25:50.395Z,24.37
2024-03-18T00:26:50.412Z,24.37
2024-03-18T00:27:50.463Z,24.37
2024-03-18T00:28:50.557Z,24.37
2024-03-18T00:29:50.664Z,24.36
2024-03-18T00:30:50.651Z,24.37
2024-03-18T00:31:50.730Z,24.37
2024-03-18T00:32:50.777Z,24.36
2024-03-18T00:33:50.821Z,24.36
2024-03-18T00:34:50.904Z,24.37
2024-03-18T00:35:51.805Z,24.36
2024-03-18T00:36:50.996Z,24.36
2024-03-18T00:37:51.073Z,24.36
2024-03-18T00:38:51.098Z,24.36
2024-03-18T00:39:51.140Z,24.37
2024-03-18T00:40:51.242Z,24.36
2024-03-18T00:41:51.346Z,24.36
2024-03-18T00:42:51.300Z,24.37
2024-03-18T00:43:51.366Z,24.36
2024-03-18T00:44:51.414Z,24.37
2024-03-18T00:45:51.460Z,24.36
2024-03-18T00:46:51.519Z,24.36
2024-03-18T00:47:51.576Z,24.36
2024-03-18T00:48:51.624Z,24.36
2024-03-18T00:49:51.708Z,24.36
2024-03-18T00:50:51.740Z,24.36
2024-03-18T00:51:51.789Z,24.36
2024-03-18T00:52:51.860Z,24.36
2024-03-18T00:53:52.062Z,24.36
2024-03-18T00:54:51.962Z,24.37
2024-03-18T00:55:52.034Z,24.36
2024-03-18T00:56:52.092Z,24.36
2024-03-18T00:57:52.145Z,24.35
2024-03-18T00:58:52.247Z,24.36
2024-03-18T00:59:52.260Z,24.36
2024-03-18T01:00:52.307Z,24.36
2024-03-18T01:01:52.383Z,24.36
2024-03-18T01:02:52.424Z,24.36
2024-03-18T01:03:52.482Z,24.36
2024-03-18T01:04:52.640Z,24.36
2024-03-18T01:05:52.587Z,24.36
2024-03-18T01:06:52.655Z,24.36
2024-03-18T01:07:52.746Z,24.36
2024-03-18T01:08:52.757Z,24.36
2024-03-18T01:09:52.842Z,24.36
2024-03-18T01:10:52.909Z,24.36
2024-03-18T01:11:52.956Z,24.35
2024-03-18T01:12:52.984Z,24.35
2024-03-18T01:13:53.062Z,24.36
2024-03-18T01:14:53.087Z,24.36
2024-03-18T01:15:53.157Z,24.36
2024-03-18T01:16:53.290Z,24.36
2024-03-18T01:17:53.259Z,24.36
2024-03-18T01:18:53.316Z,24.36
2024-03-18T01:19:53.370Z,24.36
2024-03-18T01:20:53.465Z,24.36
2024-03-18T01:21:53.476Z,24.36
2024-03-18T01:22:53.540Z,24.36
2024-03-18T01:23:53.566Z,24.36
2024-03-18T01:24:53.633Z,24.36
2024-03-18T01:25:53.702Z,24.36
2024-03-18T01:26:53.737Z,24.35
2024-03-18T01:27:53.802Z,24.36
2024-03-18T01:28:53.927Z,24.35
2024-03-18T01:29:53.892Z,24.35
2024-03-18T01:30:53.942Z,24.35
2024-03-18T01:31:54.017Z,24.35
2024-03-18T01:32:54.060Z,24.35
2024-03-18T01:33:54.119Z,24.36
2024-03-18T01:34:54.156Z,24.35
2024-03-18T01:35:54.203Z,24.35
2024-03-18T01:36:54.263Z,24.35
2024-03-18T01:37:54.344Z,24.36
2024-03-18T01:38:54.369Z,24.36
2024-03-18T01:39:54.520Z,24.35
2024-03-18T01:40:54.492Z,24.36
2024-03-18T01:41:54.544Z,24.35
2024-03-18T01:42:54.594Z,24.35
2024-03-18T01:43:54.666Z,24.34
2024-03-18T01:44:54.715Z,24.34
2024-03-18T01:45:54.783Z,24.35
2024-03-18T01:46:54.844Z,24.35
2024-03-18T01:47:54.883Z,24.35
2024-03-18T01:48:54.951Z,24.34
2024-03-18T01:49:55.031Z,24.35
2024-03-18T01:50:55.060Z,24.35
2024-03-18T01:51:55.196Z,24.34
2024-03-18T01:52:55.196Z,24.34
2024-03-18T01:53:55.211Z,24.35
2024-03-18T01:54:55.262Z,24.35
2024-03-18T01:55:55.339Z,24.36
2024-03-18T01:56:55.368Z,24.35
2024-03-18T01:57:55.432Z,24.35
2024-03-18T01:58:55.475Z,24.35
2024-03-18T01:59:55.543Z,24.35
2024-03-18T02:00:55.590Z,24.35
2024-03-18T02:01:55.637Z,24.36
2024-03-18T02:02:55.695Z,24.35
2024-03-18T02:03:55.837Z,24.36
2024-03-18T02:04:55.786Z,24.35
2024-03-18T02:05:55.856Z,24.36
2024-03-18T02:06:55.913Z,24.35
2024-03-18T02:07:55.958Z,24.36
2024-03-18T02:08:56.018Z,24.35
2024-03-18T02:09:56.061Z,24.35
2024-03-18T02:10:56.132Z,24.36
2024-03-18T02:11:56.187Z,24.34
2024-03-18T02:12:56.242Z,24.35
2024-03-18T02:13:56.297Z,24.35
2024-03-18T02:14:56.364Z,24.35
2024-03-18T02:15:56.412Z,24.35
2024-03-18T02:16:56.542Z,24.35
2024-03-18T02:17:56.521Z,24.35
2024-03-18T02:18:56.599Z,24.36
2024-03-18T02:19:56.634Z,24.35
2024-03-18T02:20:56.694Z,24.35
2024-03-18T02:21:57.639Z,24.35
2024-03-18T02:22:56.805Z,24.35
2024-03-18T02:23:56.865Z,24.35
2024-03-18T02:24:56.939Z,24.34
2024-03-18T02:25:56.995Z,24.35
2024-03-18T02:26:57.034Z,24.35
2024-03-18T02:27:57.110Z,24.35
2024-03-18T02:28:57.275Z,24.35
2024-03-18T02:29:57.234Z,24.34
2024-03-18T02:30:57.269Z,24.34
2024-03-18T02:31:57.340Z,24.35
2024-03-18T02:32:57.395Z,24.34
2024-03-18T02:33:57.454Z,24.35
2024-03-18T02:34:57.505Z,24.35
2024-03-18T02:35:57.549Z,24.35
2024-03-18T02:36:57.601Z,24.35
2024-03-18T02:37:57.668Z,24.35
2024-03-18T02:38:57.723Z,24.34
2024-03-18T02:39:57.781Z,24.35
2024-03-18T02:40:57.925Z,24.34
2024-03-18T02:41:57.885Z,24.35
2024-03-18T02:42:57.943Z,24.34
2024-03-18T02:43:58.022Z,24.34
2024-03-18T02:44:58.076Z,24.35
2024-03-18T02:45:58.128Z,24.35
2024-03-18T02:46:58.195Z,24.34
2024-03-18T02:47:58.241Z,24.35
2024-03-18T02:48:58.308Z,24.35
2024-03-18T02:49:58.351Z,24.35
2024-03-18T02:50:58.421Z,24.34
2024-03-18T02:51:58.473Z,24.34
2024-03-18T02:52:58.637Z,24.34
2024-03-18T02:53:58.587Z,24.35
2024-03-18T02:54:58.640Z,24.35
2024-03-18T02:55:58.691Z,24.34
2024-03-18T02:56:58.739Z,24.34
2024-03-18T02:57:58.802Z,24.34
2024-03-18T02:58:58.858Z,24.35
2024-03-18T02:59:58.904Z,24.34
2024-03-18T03:00:58.958Z,24.34
2024-03-18T03:01:59.014Z,24.34
2024-03-18T03:02:59.065Z,24.34
2024-03-18T03:03:59.111Z,24.34
2024-03-18T03:04:59.275Z,24.34
2024-03-18T03:05:59.236Z,24.34
2024-03-18T03:06:59.304Z,24.34
2024-03-18T03:07:59.342Z,24.34
2024-03-18T03:08:59.419Z,24.34
2024-03-18T03:09:59.462Z,24.33
2024-03-18T03:10:59.533Z,24.34
2024-03-18T03:11:59.588Z,24.33
2024-03-18T03:12:59.630Z,24.33
2024-03-18T03:13:59.689Z,24.33
2024-03-18T03:14:59.765Z,24.33
2024-03-18T03:15:59.902Z,24.33
2024-03-18T03:16:59.879Z,24.33
2024-03-18T03:17:59.936Z,24.33
2024-03-18T03:18:59.996Z,24.33
2024-03-18T03:20:00.045Z,24.33
2024-03-18T03:21:00.110Z,24.34
2024-03-18T03:22:00.182Z,24.34
2024-03-18T03:23:00.227Z,24.34
2024-03-18T03:24:00.284Z,24.34
2024-03-18T03:25:00.353Z,24.34
2024-03-18T03:26:00.415Z,24.34
2024-03-18T03:27:00.462Z,24.33
2024-03-18T03:28:00.600Z,24.33
2024-03-18T03:29:00.568Z,24.33
2024-03-18T03:30:00.645Z,24.33
2024-03-18T03:31:00.694Z,24.33
2024-03-18T03:32:00.753Z,24.34
2024-03-18T03:33:00.832Z,24.33
2024-03-18T03:34:00.900Z,24.33
2024-03-18T03:35:00.947Z,24.34
2024-03-18T03:36:01.011Z,24.33
2024-03-18T03:37:01.052Z,24.33
2024-03-18T03:38:01.129Z,24.33
2024-03-18T03:39:01.192Z,24.33
2024-03-18T03:40:01.338Z,24.33
2024-03-18T03:41:01.310Z,24.33
2024-03-18T03:42:01.357Z,24.33
2024-03-18T03:43:01.437Z,24.33
2024-03-18T03:44:01.494Z,24.33
2024-03-18T03:45:01.575Z,24.33
2024-03-18T03:46:01.607Z,24.32
2024-03-18T03:47:01.667Z,24.33
2024-03-18T03:48:01.715Z,24.33
2024-03-18T03:49:01.785Z,24.33
2024-03-18T03:50:01.844Z,24.32
2024-03-18T03:51:01.883Z,24.33
2024-03-18T03:52:02.036Z,24.33
2024-03-18T03:53:02.673Z,24.33
2024-03-18T03:54:02.051Z,24.33
2024-03-18T03:55:02.151Z,24.33
2024-03-18T03:56:02.224Z,24.32
2024-03-18T03:57:02.226Z,24.34
2024-03-18T03:58:02.287Z,24.33
2024-03-18T03:59:02.331Z,24.33
2024-03-18T04:00:02.400Z,24.33
2024-03-18T04:01:02.477Z,24.33
2024-03-18T04:02:02.513Z,24.33
2024-03-18T04:03:02.588Z,24.33
2024-03-18T04:04:02.723Z,24.34
2024-03-18T04:05:02.719Z,24.33
2024-03-18T04:06:02.730Z,24.33
2024-03-18T04:07:02.793Z,24.33
2024-03-18T04:08:02.849Z,24.33
2024-03-18T04:09:02.929Z,24.33
2024-03-18T04:10:03.016Z,24.33
2024-03-18T04:11:03.020Z,24.33
2024-03-18T04:12:03.090Z,24.33
2024-03-18T04:13:03.130Z,24.33
2024-03-18T04:14:03.198Z,24.33
2024-03-18T04:15:03.270Z,24.33
2024-03-18T04:16:03.402Z,24.33
2024-03-18T04:17:03.365Z,24.34
2024-03-18T04:18:03.415Z,24.33
2024-03-18T04:19:03.500Z,24.33
2024-03-18T04:20:03.540Z,24.33
2024-03-18T04:21:03.622Z,24.33
2024-03-18T04:22:03.707Z,24.33
2024-03-18T04:23:03.732Z,24.32
2024-03-18T04:24:03.820Z,24.33
2024-03-18T04:25:03.855Z,24.33
2024-03-18T04:26:03.910Z,24.32
2024-03-18T04:27:03.965Z,24.33
2024-03-18T04:28:04.133Z,24.33
2024-03-18T04:29:04.086Z,24.32
2024-03-18T04:30:04.202Z,24.32
2024-03-18T04:31:11.414Z,24.31
2024-03-18T04:32:11.411Z,24.32
2024-03-18T04:33:11.406Z,24.32
2024-03-18T04:34:11.385Z,24.31
2024-03-18T04:35:11.378Z,24.32
2024-03-18T04:36:11.372Z,24.32
2024-03-18T04:37:11.361Z,24.32
2024-03-18T04:38:11.370Z,24.32
2024-03-18T04:39:11.405Z,24.32
2024-03-18T04:40:11.343Z,24.32
2024-03-18T04:41:11.326Z,24.33
2024-03-18T04:42:11.313Z,24.32
2024-03-18T04:43:11.315Z,24.32
2024-03-18T04:44:11.297Z,24.32
2024-03-18T04:45:11.299Z,24.32
2024-03-18T04:46:11.282Z,24.33
2024-03-18T04:47:11.273Z,24.32
2024-03-18T04:48:11.274Z,24.32
2024-03-18T04:49:11.282Z,24.32
2024-03-18T04:50:11.347Z,24.32
2024-03-18T04:51:11.492Z,24.32
2024-03-18T04:52:11.456Z,24.33
2024-03-18T04:53:11.529Z,24.32
2024-03-18T04:54:11.594Z,24.32
2024-03-18T04:55:11.651Z,24.32
2024-03-18T04:56:11.708Z,24.32
2024-03-18T04:57:11.764Z,24.32
2024-03-18T04:58:11.838Z,24.32
2024-03-18T04:59:11.861Z,24.32
2024-03-18T05:00:11.955Z,24.33
2024-03-18T05:01:11.986Z,24.32
2024-03-18T05:02:12.044Z,24.32
2024-03-18T05:03:12.196Z,24.33
2024-03-18T05:04:12.157Z,24.32
2024-03-18T05:05:12.245Z,24.32
2024-03-18T05:06:12.277Z,24.31
2024-03-18T05:07:12.334Z,24.32
2024-03-18T05:08:12.414Z,24.32
2024-03-18T05:09:12.453Z,24.32
2024-03-18T05:10:12.533Z,24.32
2024-03-18T05:11:12.577Z,24.32
2024-03-18T05:12:12.635Z,24.31
2024-03-18T05:13:12.689Z,24.31
2024-03-18T05:14:12.759Z,24.32
2024-03-18T05:15:12.896Z,24.32
2024-03-18T05:16:12.849Z,24.32
2024-03-18T05:17:12.908Z,24.32
2024-03-18T05:18:12.960Z,24.32
2024-03-18T05:19:13.032Z,24.32
2024-03-18T05:20:13.123Z,24.32
2024-03-18T05:21:13.194Z,24.31
2024-03-18T05:22:13.213Z,24.32
2024-03-18T05:23:13.260Z,24.31
2024-03-18T05:24:13.316Z,24.31
2024-03-18T05:25:13.405Z,24.32
2024-03-18T05:26:13.428Z,24.31
2024-03-18T05:27:13.563Z,24.31
2024-03-18T05:28:13.547Z,24.31
2024-03-18T05:29:13.603Z,24.31
2024-03-18T05:30:13.699Z,24.31
2024-03-18T05:31:13.729Z,24.32
2024-03-18T05:32:13.798Z,24.32
2024-03-18T05:33:13.864Z,24.32
2024-03-18T05:34:13.912Z,24.32
2024-03-18T05:35:14.014Z,24.32
2024-03-18T05:36:14.025Z,24.31
2024-03-18T05:37:14.099Z,24.32
2024-03-18T05:38:14.149Z,24.32
2024-03-18T05:39:14.285Z,24.32
2024-03-18T05:40:14.300Z,24.31
2024-03-18T05:41:14.336Z,24.31
2024-03-18T05:42:14.396Z,24.32
2024-03-18T05:43:14.459Z,24.32
2024-03-18T05:44:14.514Z,24.32
2024-03-18T05:45:14.617Z,24.31
2024-03-18T05:46:14.637Z,24.32
2024-03-18T05:47:14.695Z,24.32
2024-03-18T05:48:14.753Z,24.32
2024-03-18T05:49:14.809Z,24.31
2024-03-18T05:50:14.860Z,24.32
2024-03-18T05:51:14.997Z,24.34
2024-03-18T05:52:14.969Z,24.35
2024-03-18T05:53:15.030Z,24.36
2024-03-18T05:54:15.081Z,24.36
2024-03-18T05:55:15.137Z,24.37
2024-03-18T05:56:15.191Z,24.39
2024-03-18T05:57:15.238Z,24.39
2024-03-18T05:58:15.281Z,24.40
2024-03-18T05:59:15.330Z,24.40
2024-03-18T06:00:15.372Z,24.41
2024-03-18T06:01:15.421Z,24.41
2024-03-18T06:02:15.478Z,24.42
2024-03-18T06:03:15.604Z,24.42
2024-03-18T06:04:15.578Z,24.44
2024-03-18T06:05:15.601Z,24.43
2024-03-18T06:06:15.672Z,24.45
2024-03-18T06:07:15.694Z,24.45
2024-03-18T06:08:15.733Z,24.46
2024-03-18T06:09:15.783Z,24.46
2024-03-18T06:10:15.835Z,24.46
2024-03-18T06:11:15.876Z,24.46
2024-03-18T06:12:15.899Z,24.47
2024-03-18T06:13:15.943Z,24.47
2024-03-18T06:14:15.987Z,24.48
2024-03-18T06:15:16.118Z,24.49
2024-03-18T06:16:16.090Z,24.49
2024-03-18T06:17:16.139Z,24.49
2024-03-18T06:18:16.172Z,24.49
2024-03-18T06:19:16.201Z,24.50
2024-03-18T06:20:16.283Z,24.49
2024-03-18T06:21:16.344Z,24.49
2024-03-18T06:22:16.342Z,24.48
2024-03-18T06:23:16.381Z,24.48
2024-03-18T06:24:16.414Z,24.48
2024-03-18T06:25:16.454Z,24.47
2024-03-18T06:26:16.594Z,24.48
2024-03-18T06:27:17.089Z,24.49
2024-03-18T06:28:16.582Z,24.49
2024-03-18T06:29:16.651Z,24.50
2024-03-18T06:30:16.653Z,24.52
2024-03-18T06:31:16.716Z,24.54
2024-03-18T06:32:17.094Z,24.52
2024-03-18T06:33:16.787Z,24.49
2024-03-18T06:34:16.830Z,24.45
2024-03-18T06:35:16.862Z,24.42
2024-03-18T06:36:17.096Z,24.32
2024-03-18T06:37:17.108Z,24.26
2024-03-18T06:38:17.050Z,24.21
2024-03-18T06:39:17.201Z,24.13
2024-03-18T06:40:17.726Z,24.11
2024-03-18T06:41:17.233Z,24.10
2024-03-18T06:42:17.624Z,24.09
2024-03-18T06:43:17.292Z,24.09
2024-03-18T06:44:17.291Z,24.09
2024-03-18T06:45:17.305Z,24.09
2024-03-18T06:46:17.305Z,24.08
2024-03-18T06:47:17.333Z,24.08
2024-03-18T06:48:17.338Z,24.12
2024-03-18T06:49:17.366Z,24.15
2024-03-18T06:50:17.399Z,24.18
2024-03-18T06:51:17.547Z,24.21
2024-03-18T06:52:17.484Z,24.25
2024-03-18T06:53:17.566Z,24.29
2024-03-18T06:54:17.610Z,24.31
2024-03-18T06:55:17.721Z,24.35
2024-03-18T06:56:18.096Z,24.39
2024-03-18T06:57:17.781Z,24.43
2024-03-18T06:58:17.840Z,24.47
2024-03-18T06:59:17.867Z,24.50
2024-03-18T07:00:17.919Z,24.53
2024-03-18T07:01:17.974Z,24.57
2024-03-18T07:02:18.005Z,24.60
2024-03-18T07:03:18.123Z,24.63
2024-03-18T07:04:18.108Z,24.65
2024-03-18T07:05:18.106Z,24.68
2024-03-18T07:06:18.128Z,24.71
2024-03-18T07:07:18.185Z,24.74
2024-03-18T07:08:18.201Z,24.76
2024-03-18T07:09:18.232Z,24.79
2024-03-18T07:10:18.265Z,24.80
2024-03-18T07:11:18.303Z,24.83
2024-03-18T07:12:18.318Z,24.85
2024-03-18T07:13:18.351Z,24.87
2024-03-18T07:14:18.612Z,24.89
2024-03-18T07:15:18.388Z,24.91
2024-03-18T07:16:18.406Z,24.92
2024-03-18T07:17:18.414Z,24.93
2024-03-18T07:18:18.443Z,24.95
2024-03-18T07:19:18.454Z,24.96
2024-03-18T07:20:19.991Z,24.97
2024-03-18T07:21:18.434Z,24.99
2024-03-18T07:22:18.439Z,25.00
2024-03-18T07:23:18.415Z,25.02
2024-03-18T07:24:18.431Z,25.03
2024-03-18T07:25:18.412Z,25.04
2024-03-18T07:26:18.462Z,25.06
2024-03-18T07:27:18.365Z,25.06
2024-03-18T07:28:18.372Z,25.08
2024-03-18T07:29:18.622Z,25.09
2024-03-18T07:30:18.314Z,25.10
2024-03-18T07:31:18.612Z,25.11
2024-03-18T07:32:18.293Z,25.12
2024-03-18T07:33:18.278Z,25.12
2024-03-18T07:34:18.264Z,25.11
2024-03-18T07:35:18.644Z,25.10
2024-03-18T07:36:18.241Z,25.06
2024-03-18T07:37:18.293Z,25.04
2024-03-18T07:38:25.037Z,25.05
2024-03-18T07:39:19.174Z,25.04
2024-03-18T07:40:18.157Z,25.05
2024-03-18T07:41:18.111Z,25.07
2024-03-18T07:42:18.158Z,25.09
2024-03-18T07:43:18.065Z,25.10
2024-03-18T07:44:18.048Z,25.14
2024-03-18T07:45:18.111Z,25.17
2024-03-18T07:46:18.032Z,25.21
2024-03-18T07:47:18.028Z,25.24
2024-03-18T07:48:17.973Z,25.28
2024-03-18T07:49:18.043Z,25.31
2024-03-18T07:50:18.108Z,25.34
2024-03-18T07:51:17.912Z,25.37
2024-03-18T07:52:17.991Z,25.40
2024-03-18T07:53:18.000Z,25.43
2024-03-18T07:54:18.020Z,25.46
2024-03-18T07:55:18.070Z,25.50
2024-03-18T07:56:18.110Z,25.53
2024-03-18T07:57:18.177Z,25.56
2024-03-18T07:58:18.155Z,25.58
2024-03-18T07:59:18.188Z,25.61
2024-03-18T08:00:18.211Z,25.62
2024-03-18T08:01:18.323Z,25.64
2024-03-18T08:02:18.252Z,25.66
2024-03-18T08:03:18.270Z,25.69
2024-03-18T08:04:18.284Z,25.67
2024-03-18T08:05:18.304Z,25.69
2024-03-18T08:06:18.314Z,25.70
2024-03-18T08:07:18.334Z,25.71
2024-03-18T08:08:18.335Z,25.72
2024-03-18T08:09:18.353Z,25.75
2024-03-18T08:10:18.678Z,25.78
2024-03-18T08:11:18.382Z,25.79
2024-03-18T08:12:18.378Z,25.82
2024-03-18T08:13:18.460Z,25.84
2024-03-18T08:14:18.396Z,25.84
2024-03-18T08:15:18.388Z,25.85
2024-03-18T08:16:18.391Z,25.86
2024-03-18T08:17:18.423Z,25.86
2024-03-18T08:18:18.454Z,25.86
2024-03-18T08:19:18.387Z,25.83
2024-03-18T08:20:18.402Z,25.81
2024-03-18T08:21:18.409Z,25.80
2024-03-18T08:22:21.160Z,25.78
2024-03-18T08:23:18.466Z,25.77
2024-03-18T08:24:18.364Z,25.75
2024-03-18T08:25:18.631Z,25.75
2024-03-18T08:26:18.624Z,25.73
2024-03-18T08:27:18.301Z,25.73
2024-03-18T08:28:18.261Z,25.67
2024-03-18T08:29:18.271Z,25.53
2024-03-18T08:30:18.223Z,25.26
2024-03-18T08:31:18.627Z,24.98
2024-03-18T08:32:18.232Z,24.82
2024-03-18T08:34:18.147Z,24.74
2024-03-18T08:35:18.151Z,24.73
2024-03-18T08:36:18.155Z,24.75
2024-03-18T08:37:18.232Z,24.76
2024-03-18T08:38:18.098Z,24.80
2024-03-18T08:39:18.112Z,24.82
2024-03-18T08:40:18.215Z,24.86
2024-03-18T08:41:18.154Z,24.91
2024-03-18T08:42:18.042Z,24.93
2024-03-18T08:43:18.032Z,24.97
2024-03-18T08:44:18.036Z,25.01
2024-03-18T08:45:18.050Z,25.05
2024-03-18T08:46:18.142Z,25.08
2024-03-18T08:47:17.957Z,25.11
2024-03-18T08:48:17.932Z,25.14
2024-03-18T08:49:17.987Z,25.17
2024-03-18T08:50:17.897Z,25.19
2024-03-18T08:51:17.964Z,25.21
2024-03-18T08:52:17.867Z,25.23
2024-03-18T08:53:17.842Z,25.25
2024-03-18T08:54:17.834Z,25.27
2024-03-18T08:55:17.918Z,25.28
2024-03-18T08:56:17.787Z,25.30
2024-03-18T08:57:17.764Z,25.32
2024-03-18T08:58:17.773Z,25.33
2024-03-18T08:59:17.749Z,25.34
2024-03-18T09:00:17.761Z,25.36
2024-03-18T09:01:17.762Z,25.37
2024-03-18T09:02:17.775Z,25.39
2024-03-18T09:03:19.274Z,25.40
2024-03-18T09:04:17.619Z,25.40
2024-03-18T09:05:17.588Z,25.41
2024-03-18T09:06:17.561Z,25.41
2024-03-18T09:07:17.578Z,25.42
2024-03-18T09:08:17.619Z,25.43
2024-03-18T09:09:17.689Z,25.43
2024-03-18T09:10:17.741Z,25.43
2024-03-18T09:11:17.787Z,25.44
2024-03-18T09:12:17.803Z,25.43
2024-03-18T09:13:17.927Z,25.44
2024-03-18T09:14:17.879Z,25.44
2024-03-18T09:15:17.930Z,25.45
2024-03-18T09:16:17.989Z,25.45
2024-03-18T09:17:18.021Z,25.46
2024-03-18T09:18:18.073Z,25.48
2024-03-18T09:19:18.112Z,25.47
2024-03-18T09:20:18.189Z,25.46
2024-03-18T09:21:18.660Z,25.48
2024-03-18T09:22:18.260Z,25.51
2024-03-18T09:23:18.282Z,25.54
2024-03-18T09:24:18.428Z,25.43
2024-03-18T09:25:18.369Z,25.23
2024-03-18T09:26:18.723Z,25.01
2024-03-18T09:27:18.379Z,24.75
2024-03-18T09:28:18.397Z,24.45
2024-03-18T09:29:18.483Z,24.21
2024-03-18T09:30:18.496Z,24.04
2024-03-18T09:31:18.542Z,23.87
2024-03-18T09:32:18.542Z,23.75
2024-03-18T09:33:18.559Z,23.61
2024-03-18T09:34:18.574Z,23.53
2024-03-18T09:35:18.613Z,23.43
2024-03-18T09:36:18.671Z,23.37
2024-03-18T09:37:18.744Z,23.41
2024-03-18T09:38:18.747Z,23.48
2024-03-18T09:39:18.782Z,23.59
2024-03-18T09:40:18.801Z,23.69
2024-03-18T09:41:19.178Z,23.83
2024-03-18T09:42:18.947Z,23.94
2024-03-18T09:43:18.861Z,24.06
2024-03-18T09:44:18.939Z,24.17
2024-03-18T09:45:18.882Z,24.28
2024-03-18T09:46:18.947Z,24.39
2024-03-18T09:47:20.223Z,24.47
2024-03-18T09:48:19.019Z,24.57
2024-03-18T09:49:18.984Z,24.65
2024-03-18T09:50:19.070Z,24.74
2024-03-18T09:51:18.955Z,24.81
2024-03-18T09:52:18.928Z,24.89
2024-03-18T09:53:18.936Z,24.96
2024-03-18T09:54:18.891Z,25.02
2024-03-18T09:55:18.985Z,25.08
2024-03-18T09:56:18.863Z,25.13
2024-03-18T09:57:18.870Z,25.19
2024-03-18T09:58:18.837Z,25.24
2024-03-18T09:59:18.844Z,25.29
2024-03-18T10:00:18.794Z,25.34
2024-03-18T10:01:18.835Z,25.38
2024-03-18T10:02:18.741Z,25.42
2024-03-18T10:03:18.728Z,25.45
2024-03-18T10:04:18.760Z,25.50
2024-03-18T10:05:18.698Z,25.53
2024-03-18T10:06:18.673Z,25.56
2024-03-18T10:07:18.690Z,25.59
2024-03-18T10:08:18.630Z,25.62
2024-03-18T10:09:18.610Z,25.64
2024-03-18T10:10:18.583Z,25.67
2024-03-18T10:11:18.577Z,25.70
2024-03-18T10:12:18.532Z,25.71
2024-03-18T10:13:18.500Z,25.73
2024-03-18T10:14:18.476Z,25.76
2024-03-18T10:15:18.451Z,25.78
2024-03-18T10:16:18.441Z,25.79
2024-03-18T10:17:18.456Z,25.81
2024-03-18T10:18:18.377Z,25.84
2024-03-18T10:19:18.328Z,25.86
2024-03-18T10:20:18.314Z,25.88
2024-03-18T10:21:18.268Z,25.89
2024-03-18T10:22:18.246Z,25.90
2024-03-18T10:23:18.209Z,25.92
2024-03-18T10:24:18.184Z,25.94
2024-03-18T10:25:18.172Z,25.94
2024-03-18T10:26:18.186Z,25.96
2024-03-18T10:27:18.232Z,25.98
2024-03-18T10:28:18.209Z,25.98
2024-03-18T10:29:18.288Z,26.00
2024-03-18T10:30:18.289Z,26.00
2024-03-18T10:31:18.692Z,25.96
2024-03-18T10:32:18.326Z,25.93
2024-03-18T10:33:18.332Z,25.88
2024-03-18T10:34:18.459Z,25.83
2024-03-18T10:35:18.280Z,25.78
2024-03-18T10:36:18.713Z,25.73
2024-03-18T10:37:18.377Z,25.71
2024-03-18T10:38:18.367Z,25.71
2024-03-18T10:39:18.418Z,25.71
2024-03-18T10:40:18.437Z,25.72
2024-03-18T10:41:18.501Z,25.74
2024-03-18T10:42:18.522Z,25.76
2024-03-18T10:43:18.536Z,25.78
2024-03-18T10:44:18.546Z,25.81
2024-03-18T10:45:18.579Z,25.83
2024-03-18T10:46:18.630Z,25.87
2024-03-18T10:47:18.641Z,25.88
2024-03-18T10:48:18.656Z,25.90
2024-03-18T10:49:18.685Z,25.92
2024-03-18T10:50:18.683Z,25.94
2024-03-18T10:51:18.724Z,25.96
2024-03-18T10:52:18.694Z,25.98
2024-03-18T10:53:18.716Z,25.99
2024-03-18T10:54:18.738Z,25.99
2024-03-18T10:55:19.633Z,26.00
2024-03-18T10:56:18.738Z,26.01
2024-03-18T10:57:18.745Z,26.01
2024-03-18T10:58:18.723Z,26.01
2024-03-18T10:59:18.737Z,26.02
2024-03-18T11:00:18.740Z,26.03
2024-03-18T11:01:18.776Z,26.04
2024-03-18T11:02:18.792Z,26.04
2024-03-18T11:03:18.740Z,26.06
2024-03-18T11:04:18.727Z,26.06
2024-03-18T11:05:18.828Z,26.07
2024-03-18T11:06:18.742Z,26.07
2024-03-18T11:07:18.742Z,26.07
2024-03-18T11:08:18.799Z,26.08
2024-03-18T11:09:18.823Z,26.10
2024-03-18T11:10:18.733Z,26.09
2024-03-18T11:11:18.750Z,26.10
2024-03-18T11:12:18.750Z,26.10
2024-03-18T11:13:18.793Z,26.10
2024-03-18T11:14:18.722Z,26.11
2024-03-18T11:15:18.749Z,26.09
2024-03-18T11:16:18.719Z,26.04
2024-03-18T11:17:18.827Z,25.93
2024-03-18T11:18:18.751Z,25.82
2024-03-18T11:19:18.798Z,25.72
2024-03-18T11:20:18.829Z,25.62
2024-03-18T11:21:19.194Z,25.55
2024-03-18T11:22:19.918Z,25.49
2024-03-18T11:23:18.941Z,25.41
2024-03-18T11:24:18.953Z,25.35
2024-03-18T11:25:18.907Z,25.32
2024-03-18T11:26:19.220Z,25.29
2024-03-18T11:27:18.938Z,25.27
2024-03-18T11:28:18.869Z,25.23
2024-03-18T11:29:18.880Z,25.19
2024-03-18T11:30:18.902Z,25.12
2024-03-18T11:31:18.874Z,25.06
2024-03-18T11:32:19.081Z,25.02
2024-03-18T11:33:18.904Z,24.97
2024-03-18T11:34:18.968Z,24.93
2024-03-18T11:35:18.973Z,24.91
2024-03-18T11:36:19.213Z,24.89
2024-03-18T11:37:19.042Z,24.88
2024-03-18T11:38:19.033Z,24.87
2024-03-18T11:39:19.081Z,24.87
2024-03-18T11:40:19.123Z,24.86
2024-03-18T11:41:19.102Z,24.86
2024-03-18T11:42:19.266Z,24.89
2024-03-18T11:43:19.164Z,24.92
2024-03-18T11:44:19.174Z,24.95
2024-03-18T11:45:19.191Z,24.99
2024-03-18T11:46:19.197Z,25.02
2024-03-18T11:47:19.218Z,25.05
2024-03-18T11:48:19.209Z,25.09
2024-03-18T11:49:19.212Z,25.12
2024-03-18T11:50:19.204Z,25.17
2024-03-18T11:51:19.193Z,25.21
2024-03-18T11:52:19.258Z,25.24
2024-03-18T11:53:19.248Z,25.27
2024-03-18T11:54:19.126Z,25.31
2024-03-18T11:55:19.112Z,25.34
2024-03-18T11:56:19.095Z,25.36
2024-03-18T11:57:19.072Z,25.38
2024-03-18T11:58:19.060Z,25.40
2024-03-18T11:59:19.075Z,25.39
2024-03-18T12:00:19.084Z,25.39
2024-03-18T12:01:19.069Z,25.38
2024-03-18T12:02:19.053Z,25.38
2024-03-18T12:03:19.059Z,25.39
2024-03-18T12:04:19.042Z,25.41
2024-03-18T12:05:19.017Z,25.43
2024-03-18T12:06:19.061Z,25.43
2024-03-18T12:07:19.075Z,25.42
2024-03-18T12:08:19.135Z,25.43
2024-03-18T12:09:19.149Z,25.44
2024-03-18T12:10:19.164Z,25.45
2024-03-18T12:11:19.227Z,25.48
2024-03-18T12:12:19.239Z,25.51
2024-03-18T12:13:19.271Z,25.52
2024-03-18T12:14:19.327Z,25.51
2024-03-18T12:15:19.358Z,25.50
2024-03-18T12:16:19.734Z,25.43
2024-03-18T12:17:21.082Z,25.38
2024-03-18T12:18:19.354Z,25.35
2024-03-18T12:19:19.320Z,25.31
2024-03-18T12:20:19.295Z,25.31
2024-03-18T12:21:19.272Z,25.31
2024-03-18T12:22:19.262Z,25.31
2024-03-18T12:23:19.235Z,25.31
2024-03-18T12:24:19.217Z,25.31
2024-03-18T12:25:19.209Z,25.33
2024-03-18T12:26:19.197Z,25.34
2024-03-18T12:27:19.205Z,25.35
2024-03-18T12:28:19.230Z,25.37
2024-03-18T12:29:19.247Z,25.37
2024-03-18T12:30:19.283Z,25.39
2024-03-18T12:31:19.314Z,25.41
2024-03-18T12:32:19.332Z,25.42
2024-03-18T12:33:19.384Z,25.42
2024-03-18T12:34:19.389Z,25.43
2024-03-18T12:35:19.434Z,25.44
2024-03-18T12:36:19.468Z,25.44
2024-03-18T12:37:19.510Z,25.45
2024-03-18T12:38:19.551Z,25.46
2024-03-18T12:39:19.599Z,25.47
2024-03-18T12:40:19.609Z,25.48
2024-03-18T12:41:19.663Z,25.47
2024-03-18T12:42:19.674Z,25.49
2024-03-18T12:43:19.786Z,25.50
2024-03-18T12:44:19.766Z,25.50
2024-03-18T12:45:24.154Z,25.51
2024-03-18T12:46:25.983Z,25.51
2024-03-18T12:47:20.750Z,25.49
2024-03-18T12:48:19.729Z,25.49
2024-03-18T12:49:19.716Z,25.50
2024-03-18T12:50:19.681Z,25.50
2024-03-18T12:51:19.644Z,25.50
2024-03-18T12:52:19.626Z,25.50
2024-03-18T12:53:19.581Z,25.48
2024-03-18T12:54:19.570Z,25.50